Time;durP1;ratioP1;P1;durP2;ratioP2;P2;SDS_P1;SDS_P2;PMS_P1;PMS_P2;Temp;Humidity;BMP_temperature;BMP_pressure;BME280_temperature;BME280_humidity;BME280_pressure;Samples;Min_cycle;Max_cycle;Signal;HPM_P1;HPM_P2
2023/01/06 00:01:21;;;;;;;;;;;9.60;99.90;;;;;;4935744;29;20455;-88
2023/01/06 00:03:48;;;;;;;;;;;9.60;99.90;;;;;;4936813;29;19978;-88
2023/01/06 00:06:14;;;;;;;;;;;9.60;99.90;;;;;;4936243;29;20484;-88
2023/01/06 00:08:39;;;;;;;;;;;9.70;99.90;;;;;;4936099;29;20018;-88
2023/01/06 00:11:06;;;;;;;;;;;8.20;99.90;;;;;;4951972;29;19926;-87
2023/01/06 00:13:32;;;;;;;;;;;9.60;99.90;;;;;;4936349;29;19953;-88
2023/01/06 00:16:01;;;;;;;;;;;9.60;99.90;;;;;;4935705;29;20499;-88
2023/01/06 00:18:27;;;;;;;;;;;9.60;99.90;;;;;;4936040;29;19926;-88
2023/01/06 00:20:52;;;;;;;;;;;9.60;99.90;;;;;;4935273;29;20391;-88
2023/01/06 00:23:18;;;;;;;;;;;8.90;99.90;;;;;;4936059;29;19930;-88
2023/01/06 00:25:50;;;;;;;;;;;9.80;99.90;;;;;;4935904;29;19982;-88
2023/01/06 00:28:16;;;;;;;;;;;9.70;99.90;;;;;;4935867;29;20070;-88
2023/01/06 00:30:44;;;;;;;;;;;9.70;99.90;;;;;;4920385;29;19927;-88
2023/01/06 00:33:09;;;;;;;;;;;9.80;99.90;;;;;;4936748;29;19962;-88
2023/01/06 00:35:35;;;;;;;;;;;10.00;99.90;;;;;;4935833;29;20350;-88
2023/01/06 00:38:01;;;;;;;;;;;9.70;99.90;;;;;;4935927;29;20335;-88
2023/01/06 00:40:26;;;;;;;;;;;9.70;99.90;;;;;;4935908;29;19927;-87
2023/01/06 00:42:52;;;;;;;;;;;9.70;99.90;;;;;;4935938;29;19974;-88
2023/01/06 00:45:17;;;;;;;;;;;9.80;99.90;;;;;;4936090;29;19977;-88
2023/01/06 00:47:43;;;;;;;;;;;9.70;99.90;;;;;;4935711;29;20014;-88
2023/01/06 00:50:09;;;;;;;;;;;9.70;99.90;;;;;;4936341;29;19981;-89
2023/01/06 00:52:34;;;;;;;;;;;9.70;99.90;;;;;;4935819;29;19934;-88
2023/01/06 00:55:00;;;;;;;;;;;9.80;99.90;;;;;;4935396;29;19927;-89
2023/01/06 00:57:25;;;;;;;;;;;9.80;99.90;;;;;;4936092;29;19934;-88
2023/01/06 00:59:51;;;;;;;;;;;9.80;99.90;;;;;;4935768;29;20410;-88
2023/01/06 01:02:17;;;;;;;;;;;9.80;99.90;;;;;;4904919;29;19974;-88
2023/01/06 01:04:42;;;;;;;;;;;9.80;99.90;;;;;;4935852;29;19927;-87
2023/01/06 01:07:09;;;;;;;;;;;9.80;99.90;;;;;;4919571;29;19938;-88
2023/01/06 01:09:35;;;;;;;;;;;9.80;99.90;;;;;;4935673;29;19926;-88
2023/01/06 01:12:10;;;;;;;;;;;9.80;99.90;;;;;;4937792;29;20021;-88
2023/01/06 01:14:37;;;;;;;;;;;8.80;99.90;;;;;;4939218;29;19938;-89
2023/01/06 01:17:03;;;;;;;;;;;9.80;99.90;;;;;;4938820;29;19926;-89
2023/01/06 01:19:29;;;;;;;;;;;9.80;99.90;;;;;;4941117;29;19934;-89
2023/01/06 01:21:55;;;;;;;;;;;9.80;99.90;;;;;;4942323;29;19926;-88
2023/01/06 01:24:21;;;;;;;;;;;9.80;99.90;;;;;;4942988;29;19926;-88
2023/01/06 01:26:49;;;;;;;;;;;9.80;99.90;;;;;;4941082;29;20244;-88
2023/01/06 01:29:16;;;;;;;;;;;8.80;99.90;;;;;;4941767;29;20438;-88
2023/01/06 01:31:42;;;;;;;;;;;9.90;99.90;;;;;;4941877;29;19927;-88
2023/01/06 01:34:08;;;;;;;;;;;10.10;99.90;;;;;;4941715;29;20034;-89
2023/01/06 01:36:34;;;;;;;;;;;9.80;99.90;;;;;;4941484;29;19934;-88
2023/01/06 01:39:00;;;;;;;;;;;9.90;99.90;;;;;;4926165;29;19926;-88
2023/01/06 01:41:26;;;;;;;;;;;9.80;99.90;;;;;;4957559;29;19927;-88
2023/01/06 01:43:56;;;;;;;;;;;9.80;99.90;;;;;;4941615;29;19926;-87
2023/01/06 01:46:25;;;;;;;;;;;9.90;99.90;;;;;;4941559;29;19926;-88
2023/01/06 01:48:51;;;;;;;;;;;9.90;99.90;;;;;;4942189;29;19927;-88
2023/01/06 01:51:18;;;;;;;;;;;9.90;99.90;;;;;;4925716;29;19933;-88
2023/01/06 01:53:48;;;;;;;;;;;9.80;99.90;;;;;;4925371;29;19927;-88
2023/01/06 01:56:17;;;;;;;;;;;9.80;99.90;;;;;;4942372;29;20319;-88
2023/01/06 01:58:44;;;;;;;;;;;9.90;99.90;;;;;;4941370;29;20036;-88
2023/01/06 02:01:10;;;;;;;;;;;9.80;99.90;;;;;;4941479;29;19930;-88
2023/01/06 02:03:37;;;;;;;;;;;10.00;99.90;;;;;;4925750;29;19972;-88
2023/01/06 02:06:04;;;;;;;;;;;9.80;99.90;;;;;;4941099;29;20029;-88
2023/01/06 02:08:38;;;;;;;;;;;9.80;99.90;;;;;;4942156;29;19926;-88
2023/01/06 02:11:04;;;;;;;;;;;9.80;99.90;;;;;;4941100;29;19926;-88
2023/01/06 02:13:34;;;;;;;;;;;9.80;99.90;;;;;;4941762;29;19981;-88
2023/01/06 02:16:23;;;;;;;;;;;10.10;99.90;;;;;;4941292;29;19930;-88
2023/01/06 02:18:55;;;;;;;;;;;9.80;99.90;;;;;;4916337;29;19930;-88
2023/01/06 02:21:39;;;;;;;;;;;9.80;99.90;;;;;;4940487;29;19926;-87
2023/01/06 02:24:20;;;;;;;;;;;9.80;99.90;;;;;;4940508;29;19982;-88
2023/01/06 02:27:04;;;;;;;;;;;9.70;99.90;;;;;;4941557;29;20003;-88
2023/01/06 02:29:53;;;;;;;;;;;10.40;99.90;;;;;;4940749;29;19927;-88
2023/01/06 02:32:28;;;;;;;;;;;9.80;99.90;;;;;;4915351;29;19934;-88
2023/01/06 02:34:53;;;;;;;;;;;9.80;99.90;;;;;;4940743;29;19931;-88
2023/01/06 02:37:35;;;;;;;;;;;9.70;99.90;;;;;;4940990;29;20373;-87
2023/01/06 02:40:00;;;;;;;;;;;9.80;99.90;;;;;;4941647;29;20244;-88
2023/01/06 02:42:42;;;;;;;;;;;9.80;99.90;;;;;;4940436;29;19934;-88
2023/01/06 02:45:11;;;;;;;;;;;9.70;99.90;;;;;;4956869;29;19938;-88
2023/01/06 02:47:55;;;;;;;;;;;9.70;99.90;;;;;;4940975;29;20298;-88
2023/01/06 02:50:22;;;;;;;;;;;8.90;99.90;;;;;;4940785;29;19926;-88
2023/01/06 02:52:54;;;;;;;;;;;9.80;99.90;;;;;;4940490;29;19934;-88
2023/01/06 02:55:27;;;;;;;;;;;9.80;99.90;;;;;;4940855;29;20060;-89
2023/01/06 02:57:56;;;;;;;;;;;9.70;99.90;;;;;;4940482;29;19926;-89
2023/01/06 03:00:33;;;;;;;;;;;9.70;99.90;;;;;;4940128;29;19950;-88
2023/01/06 03:03:00;;;;;;;;;;;9.80;99.90;;;;;;4940322;29;19930;-88
2023/01/06 03:05:27;;;;;;;;;;;9.90;99.90;;;;;;4940028;29;19927;-88
2023/01/06 03:07:54;;;;;;;;;;;9.70;99.90;;;;;;4940238;29;19933;-88
2023/01/06 03:10:21;;;;;;;;;;;9.70;99.90;;;;;;4924687;29;19988;-88
2023/01/06 03:12:52;;;;;;;;;;;11.30;99.90;;;;;;4940293;29;19978;-88
2023/01/06 03:15:18;;;;;;;;;;;9.80;99.90;;;;;;4940343;29;19989;-88
2023/01/06 03:17:44;;;;;;;;;;;9.70;99.90;;;;;;4940380;29;19930;-88
2023/01/06 03:20:10;;;;;;;;;;;9.80;99.90;;;;;;4955416;29;19981;-88
2023/01/06 03:22:37;;;;;;;;;;;9.70;99.90;;;;;;4955558;29;19933;-88
2023/01/06 03:25:04;;;;;;;;;;;9.70;99.90;;;;;;4939630;29;20025;-89
2023/01/06 03:27:29;;;;;;;;;;;9.70;99.90;;;;;;4939283;29;19933;-88
2023/01/06 03:29:55;;;;;;;;;;;9.70;99.90;;;;;;4939517;29;20287;-88
2023/01/06 03:32:31;;;;;;;;;;;9.70;99.90;;;;;;4940237;29;19933;-88
2023/01/06 03:35:03;;;;;;;;;;;9.70;99.90;;;;;;4938990;29;19926;-88
2023/01/06 03:37:44;;;;;;;;;;;10.00;99.90;;;;;;4940132;29;19930;-88
2023/01/06 03:40:28;;;;;;;;;;;9.70;99.90;;;;;;4940074;29;19977;-88
2023/01/06 03:43:12;;;;;;;;;;;9.60;99.90;;;;;;4939368;29;19934;-88
2023/01/06 03:45:38;;;;;;;;;;;9.60;99.90;;;;;;4939905;29;20013;-88
2023/01/06 03:48:08;;;;;;;;;;;9.60;99.90;;;;;;4955205;29;20014;-88
2023/01/06 03:50:46;;;;;;;;;;;9.60;99.90;;;;;;4938877;29;20009;-88
2023/01/06 03:53:21;;;;;;;;;;;9.50;99.90;;;;;;4939483;29;19926;-88
2023/01/06 03:55:53;;;;;;;;;;;9.60;99.90;;;;;;4955009;29;20017;-89
2023/01/06 03:58:19;;;;;;;;;;;9.60;99.90;;;;;;4939620;29;20360;-88
2023/01/06 04:00:45;;;;;;;;;;;9.50;99.90;;;;;;4922873;29;19988;-88
2023/01/06 04:03:12;;;;;;;;;;;9.70;99.90;;;;;;4954592;29;19927;-88
2023/01/06 04:05:38;;;;;;;;;;;9.60;99.90;;;;;;4938652;29;20406;-88
2023/01/06 04:08:04;;;;;;;;;;;9.60;99.90;;;;;;4923358;29;19965;-88
2023/01/06 04:10:29;;;;;;;;;;;9.70;99.90;;;;;;4938914;29;19930;-88
2023/01/06 04:12:55;;;;;;;;;;;9.60;99.90;;;;;;4954809;29;20422;-89
2023/01/06 04:15:22;;;;;;;;;;;9.60;99.90;;;;;;4938736;29;19933;-88
2023/01/06 04:17:47;;;;;;;;;;;9.60;99.90;;;;;;4938710;29;19933;-88
2023/01/06 04:20:14;;;;;;;;;;;9.60;99.90;;;;;;4935298;29;19926;-89
2023/01/06 04:22:42;;;;;;;;;;;9.50;99.90;;;;;;4935330;29;20374;-88
2023/01/06 04:25:08;;;;;;;;;;;8.30;99.90;;;;;;4935244;29;20399;-88
2023/01/06 04:27:34;;;;;;;;;;;9.60;99.90;;;;;;4935253;29;19977;-88
2023/01/06 04:29:59;;;;;;;;;;;9.60;99.90;;;;;;4935510;29;20359;-87
2023/01/06 04:32:25;;;;;;;;;;;9.50;99.90;;;;;;4935486;29;19982;-87
2023/01/06 04:34:51;;;;;;;;;;;9.60;99.90;;;;;;4935372;29;19927;-88
2023/01/06 04:37:17;;;;;;;;;;;9.60;99.90;;;;;;4935362;29;19934;-88
2023/01/06 04:39:42;;;;;;;;;;;9.60;99.90;;;;;;4935782;29;20039;-89
2023/01/06 04:42:08;;;;;;;;;;;9.60;99.90;;;;;;4935729;29;20057;-88
2023/01/06 04:44:36;;;;;;;;;;;9.60;99.90;;;;;;4935719;29;19956;-88
2023/01/06 04:47:02;;;;;;;;;;;9.70;99.90;;;;;;4922175;29;19926;-88
2023/01/06 04:49:27;;;;;;;;;;;9.70;99.90;;;;;;4939355;29;19931;-88
2023/01/06 04:51:53;;;;;;;;;;;9.60;99.90;;;;;;4939757;29;20046;-88
2023/01/06 04:54:21;;;;;;;;;;;9.70;99.90;;;;;;4940033;29;20279;-87
2023/01/06 04:56:47;;;;;;;;;;;9.60;99.90;;;;;;4938951;29;19989;-88
2023/01/06 04:59:12;;;;;;;;;;;9.60;99.90;;;;;;4938827;29;19935;-88
2023/01/06 05:01:38;;;;;;;;;;;9.70;99.90;;;;;;4938682;29;19938;-88
2023/01/06 05:04:06;;;;;;;;;;;9.60;99.90;;;;;;4922907;29;19927;-88
2023/01/06 05:06:32;;;;;;;;;;;9.70;99.90;;;;;;4939093;29;19927;-87
2023/01/06 05:08:57;;;;;;;;;;;9.30;99.90;;;;;;4938863;29;19927;-87
2023/01/06 05:11:24;;;;;;;;;;;9.60;99.90;;;;;;4938628;29;20422;-88
2023/01/06 05:13:50;;;;;;;;;;;9.80;99.90;;;;;;4939093;29;20095;-88
2023/01/06 05:16:17;;;;;;;;;;;9.70;99.90;;;;;;4938560;29;19987;-88
2023/01/06 05:18:43;;;;;;;;;;;9.80;99.90;;;;;;4938621;29;20062;-88
2023/01/06 05:21:08;;;;;;;;;;;9.70;99.90;;;;;;4938035;29;19978;-87
2023/01/06 05:23:35;;;;;;;;;;;9.70;99.90;;;;;;4938622;29;19934;-88
2023/01/06 05:26:01;;;;;;;;;;;9.80;99.90;;;;;;4939064;29;19933;-88
2023/01/06 05:28:28;;;;;;;;;;;9.70;99.90;;;;;;4938619;29;20021;-89
2023/01/06 05:30:57;;;;;;;;;;;9.80;99.90;;;;;;4938731;29;19927;-87
2023/01/06 05:33:23;;;;;;;;;;;9.80;99.90;;;;;;4938477;29;20279;-88
2023/01/06 05:35:48;;;;;;;;;;;9.70;99.90;;;;;;4939059;29;19976;-88
2023/01/06 05:38:14;;;;;;;;;;;9.80;99.90;;;;;;4939119;29;19933;-88
2023/01/06 05:40:39;;;;;;;;;;;9.70;99.90;;;;;;4938584;29;19930;-89
2023/01/06 05:43:05;;;;;;;;;;;9.80;99.90;;;;;;4938598;29;19927;-88
2023/01/06 05:45:31;;;;;;;;;;;9.80;99.90;;;;;;4938230;29;19927;-87
2023/01/06 05:47:56;;;;;;;;;;;9.70;99.90;;;;;;4922149;29;19934;-88
2023/01/06 05:50:22;;;;;;;;;;;9.70;99.90;;;;;;4938200;29;20354;-88
2023/01/06 05:52:52;;;;;;;;;;;9.70;99.90;;;;;;4937741;29;19934;-88
2023/01/06 05:55:17;;;;;;;;;;;9.70;99.90;;;;;;4938363;29;19981;-88
2023/01/06 05:57:43;;;;;;;;;;;9.60;99.90;;;;;;4937537;29;20033;-87
2023/01/06 06:00:09;;;;;;;;;;;9.60;99.90;;;;;;4922152;29;19934;-88
2023/01/06 06:02:34;;;;;;;;;;;9.60;99.90;;;;;;4937942;29;20390;-88
2023/01/06 06:05:00;;;;;;;;;;;9.80;99.90;;;;;;4937921;29;19927;-88
2023/01/06 06:07:26;;;;;;;;;;;9.70;99.90;;;;;;4938337;29;19927;-88
2023/01/06 06:09:51;;;;;;;;;;;9.60;99.90;;;;;;4938693;29;19949;-88
2023/01/06 06:12:17;;;;;;;;;;;9.80;99.90;;;;;;4953197;29;19927;-87
2023/01/06 06:14:43;;;;;;;;;;;9.60;99.90;;;;;;4938597;29;19926;-87
2023/01/06 06:17:08;;;;;;;;;;;9.50;99.90;;;;;;4937713;29;20378;-87
2023/01/06 06:19:34;;;;;;;;;;;9.50;99.90;;;;;;4937949;29;19927;-88
2023/01/06 06:21:59;;;;;;;;;;;9.40;99.90;;;;;;4921949;29;19926;-88
2023/01/06 06:24:25;;;;;;;;;;;9.40;99.90;;;;;;4938192;29;20018;-88
2023/01/06 06:26:50;;;;;;;;;;;9.40;99.90;;;;;;4937329;29;19991;-88
2023/01/06 06:29:16;;;;;;;;;;;9.40;99.90;;;;;;4937366;29;19927;-87
2023/01/06 06:31:43;;;;;;;;;;;9.40;99.90;;;;;;4937419;29;19934;-87
2023/01/06 06:34:09;;;;;;;;;;;9.40;99.90;;;;;;4936964;29;19934;-87
2023/01/06 06:36:35;;;;;;;;;;;9.40;99.90;;;;;;4953004;29;19933;-87
2023/01/06 06:39:01;;;;;;;;;;;9.40;99.90;;;;;;4936966;29;19927;-87
2023/01/06 06:41:26;;;;;;;;;;;9.40;99.90;;;;;;4937242;29;19933;-87
2023/01/06 06:43:52;;;;;;;;;;;9.40;99.90;;;;;;4937521;29;20287;-88
2023/01/06 06:46:18;;;;;;;;;;;9.40;99.90;;;;;;4936937;29;19978;-88
2023/01/06 06:48:44;;;;;;;;;;;9.40;99.90;;;;;;4937406;29;19927;-89
2023/01/06 06:51:11;;;;;;;;;;;9.40;99.90;;;;;;4937650;29;20300;-89
2023/01/06 06:53:37;;;;;;;;;;;9.40;99.90;;;;;;4937147;29;19926;-87
2023/01/06 06:56:04;;;;;;;;;;;9.30;99.90;;;;;;4905137;29;20291;-87
2023/01/06 06:58:30;;;;;;;;;;;8.60;99.90;;;;;;4937089;29;20018;-88
2023/01/06 07:00:55;;;;;;;;;;;9.30;99.90;;;;;;4937129;29;20332;-88
2023/01/06 07:03:21;;;;;;;;;;;9.30;99.90;;;;;;4936910;29;19927;-88
2023/01/06 07:05:48;;;;;;;;;;;9.30;99.90;;;;;;4936638;29;20021;-88
2023/01/06 07:08:14;;;;;;;;;;;9.30;99.90;;;;;;4920926;29;20044;-88
2023/01/06 07:10:39;;;;;;;;;;;9.30;99.90;;;;;;4935890;29;19927;-89
2023/01/06 07:13:05;;;;;;;;;;;9.40;99.90;;;;;;4904763;29;19966;-88
2023/01/06 07:15:31;;;;;;;;;;;9.30;99.90;;;;;;4905399;29;19927;-88
2023/01/06 07:18:01;;;;;;;;;;;9.30;99.90;;;;;;4936844;29;20415;-88
2023/01/06 07:20:27;;;;;;;;;;;8.80;99.90;;;;;;4935788;29;19981;-89
2023/01/06 07:22:53;;;;;;;;;;;9.30;99.90;;;;;;4936466;29;19926;-89
2023/01/06 07:25:19;;;;;;;;;;;9.30;99.90;;;;;;4936139;29;19934;-88
2023/01/06 07:27:45;;;;;;;;;;;9.30;99.90;;;;;;4936564;29;19926;-86
2023/01/06 07:30:11;;;;;;;;;;;9.30;99.90;;;;;;4936334;29;19978;-87
2023/01/06 07:32:37;;;;;;;;;;;9.30;99.90;;;;;;4936325;29;19978;-88
2023/01/06 07:35:02;;;;;;;;;;;9.50;99.90;;;;;;4936079;29;20371;-88
2023/01/06 07:37:28;;;;;;;;;;;8.60;99.90;;;;;;4936189;29;19983;-89
2023/01/06 07:39:56;;;;;;;;;;;9.30;99.90;;;;;;4936325;29;19927;-89
2023/01/06 07:42:22;;;;;;;;;;;8.80;99.90;;;;;;4936625;29;19931;-88
2023/01/06 07:44:47;;;;;;;;;;;9.40;99.90;;;;;;4936715;29;20379;-90
2023/01/06 07:47:13;;;;;;;;;;;9.30;99.90;;;;;;4936620;29;20010;-87
2023/01/06 07:49:41;;;;;;;;;;;9.40;99.90;;;;;;4919707;29;19927;-89
2023/01/06 07:52:07;;;;;;;;;;;9.40;99.90;;;;;;4920457;29;19927;-88
2023/01/06 07:54:33;;;;;;;;;;;9.40;99.90;;;;;;4935614;29;20260;-88
2023/01/06 07:56:58;;;;;;;;;;;9.30;99.90;;;;;;4936112;29;20030;-88
2023/01/06 07:59:24;;;;;;;;;;;9.20;99.90;;;;;;4935797;29;20434;-89
2023/01/06 08:01:49;;;;;;;;;;;9.10;99.90;;;;;;4935723;29;19927;-88
2023/01/06 08:04:15;;;;;;;;;;;9.10;99.90;;;;;;4936563;29;19926;-87
2023/01/06 08:06:41;;;;;;;;;;;8.90;99.90;;;;;;4936193;29;19927;-91
2023/01/06 08:09:09;;;;;;;;;;;8.80;99.90;;;;;;4936441;29;20021;-91
2023/01/06 08:11:35;;;;;;;;;;;8.70;99.90;;;;;;4935794;29;19970;-92
2023/01/06 08:14:00;;;;;;;;;;;8.80;99.90;;;;;;4935742;29;19979;-90
2023/01/06 08:16:31;;;;;;;;;;;8.50;99.90;;;;;;4935541;29;19927;-90
2023/01/06 08:18:56;;;;;;;;;;;6.80;99.90;;;;;;4935719;29;19927;-90
2023/01/06 08:21:22;;;;;;;;;;;8.50;99.90;;;;;;4934681;29;19927;-90
2023/01/06 08:23:48;;;;;;;;;;;8.20;99.90;;;;;;4937103;29;19993;-92
2023/01/06 08:26:15;;;;;;;;;;;8.20;99.90;;;;;;4935989;29;19931;-90
2023/01/06 08:28:41;;;;;;;;;;;8.30;99.90;;;;;;4935702;29;19933;-90
2023/01/06 08:31:07;;;;;;;;;;;8.10;99.90;;;;;;4936032;29;19974;-91
2023/01/06 08:33:36;;;;;;;;;;;8.00;99.90;;;;;;4935073;29;19927;-91
2023/01/06 08:36:03;;;;;;;;;;;8.20;99.90;;;;;;4920342;29;19950;-90
2023/01/06 08:38:29;;;;;;;;;;;8.00;99.90;;;;;;4935618;29;19931;-90
2023/01/06 08:40:56;;;;;;;;;;;7.90;99.90;;;;;;4935442;29;19978;-91
2023/01/06 08:43:22;;;;;;;;;;;7.90;99.90;;;;;;4935298;29;19927;-89
2023/01/06 08:45:48;;;;;;;;;;;7.90;99.90;;;;;;4935578;29;20021;-91
2023/01/06 08:48:14;;;;;;;;;;;7.80;99.90;;;;;;4934512;29;19973;-89
2023/01/06 08:50:40;;;;;;;;;;;7.80;99.90;;;;;;4935134;29;19926;-89
2023/01/06 08:53:06;;;;;;;;;;;7.70;99.90;;;;;;4935482;29;20021;-90
2023/01/06 08:55:32;;;;;;;;;;;7.70;99.90;;;;;;4935203;29;19966;-90
2023/01/06 08:57:57;;;;;;;;;;;7.70;99.90;;;;;;4935304;29;19974;-91
2023/01/06 09:00:23;;;;;;;;;;;7.80;99.90;;;;;;4935489;29;19927;-87
2023/01/06 09:02:48;;;;;;;;;;;7.60;99.90;;;;;;4950927;29;19998;-88
2023/01/06 09:05:14;;;;;;;;;;;7.60;99.90;;;;;;4935030;29;19966;-88
2023/01/06 09:07:40;;;;;;;;;;;7.60;99.90;;;;;;4919801;29;19927;-88
2023/01/06 09:10:06;;;;;;;;;;;7.60;99.90;;;;;;4934794;29;19950;-87
2023/01/06 09:12:32;;;;;;;;;;;7.60;99.90;;;;;;4935035;29;19934;-88
2023/01/06 09:14:58;;;;;;;;;;;7.60;99.90;;;;;;4935056;29;20304;-88
2023/01/06 09:17:23;;;;;;;;;;;7.80;99.90;;;;;;4935087;29;20025;-86
2023/01/06 09:19:49;;;;;;;;;;;7.60;99.90;;;;;;4950493;29;19933;-90
2023/01/06 09:22:17;;;;;;;;;;;7.60;99.90;;;;;;4935098;29;19966;-89
2023/01/06 09:24:43;;;;;;;;;;;7.60;99.90;;;;;;4935332;29;20018;-89
2023/01/06 09:27:08;;;;;;;;;;;7.70;99.90;;;;;;4935090;29;19966;-91
2023/01/06 09:29:34;;;;;;;;;;;7.60;99.90;;;;;;4936211;29;19978;-91
2023/01/06 09:32:02;;;;;;;;;;;7.20;99.90;;;;;;4936595;29;20334;-88
2023/01/06 09:34:28;;;;;;;;;;;7.80;99.90;;;;;;4939493;29;20334;-87
2023/01/06 09:36:53;;;;;;;;;;;7.90;99.90;;;;;;4939089;29;20021;-89
2023/01/06 09:39:19;;;;;;;;;;;7.70;99.90;;;;;;4924952;29;19927;-89
2023/01/06 09:41:50;;;;;;;;;;;7.80;99.90;;;;;;4939473;29;19927;-90
2023/01/06 09:44:21;;;;;;;;;;;7.80;99.90;;;;;;4943529;29;19927;-89
2023/01/06 09:46:48;;;;;;;;;;;7.80;99.90;;;;;;4939009;29;19933;-90
2023/01/06 09:49:17;;;;;;;;;;;7.80;99.90;;;;;;4938617;29;19926;-89
2023/01/06 09:51:43;;;;;;;;;;;7.80;99.90;;;;;;4938033;29;19927;-90
2023/01/06 09:54:09;;;;;;;;;;;7.90;99.90;;;;;;4937811;29;20390;-90
2023/01/06 09:56:35;;;;;;;;;;;8.00;99.90;;;;;;4938398;29;19927;-91
2023/01/06 09:59:11;;;;;;;;;;;8.20;99.90;;;;;;4937758;29;19926;-88
2023/01/06 10:01:39;;;;;;;;;;;8.20;99.90;;;;;;4941045;29;19927;-89
2023/01/06 10:04:04;;;;;;;;;;;8.30;99.90;;;;;;4939044;29;19926;-90
2023/01/06 10:06:56;;;;;;;;;;;8.40;99.90;;;;;;4940522;29;19934;-90
2023/01/06 10:09:34;;;;;;;;;;;7.40;99.90;;;;;;4923002;29;20043;-93
2023/01/06 10:12:09;;;;;;;;;;;8.70;99.90;;;;;;4942414;29;20017;-91
2023/01/06 10:14:38;;;;;;;;;;;8.70;99.90;;;;;;4942127;29;20245;-90
2023/01/06 10:17:10;;;;;;;;;;;9.00;99.90;;;;;;4938318;29;19927;-90
2023/01/06 10:19:35;;;;;;;;;;;8.00;99.90;;;;;;4938638;29;20037;-89
2023/01/06 10:22:40;;;;;;;;;;;9.00;99.90;;;;;;4940712;29;19927;-89
2023/01/06 10:25:08;;;;;;;;;;;9.10;99.90;;;;;;4901172;29;20422;-91
2023/01/06 10:27:35;;;;;;;;;;;9.00;99.90;;;;;;4885610;29;19927;-88
2023/01/06 10:30:02;;;;;;;;;;;8.90;99.90;;;;;;4920510;29;19954;-88
2023/01/06 10:32:29;;;;;;;;;;;8.90;99.90;;;;;;4940707;29;19933;-90
2023/01/06 10:34:58;;;;;;;;;;;9.10;99.90;;;;;;4940630;29;20003;-89
2023/01/06 10:37:32;;;;;;;;;;;9.00;99.90;;;;;;4940588;29;20044;-90
2023/01/06 10:40:02;;;;;;;;;;;7.90;99.90;;;;;;4940329;29;20025;-89
2023/01/06 10:42:56;;;;;;;;;;;8.90;99.90;;;;;;4940381;29;20343;-88
2023/01/06 10:45:27;;;;;;;;;;;8.90;99.90;;;;;;4940943;29;19994;-89
2023/01/06 10:47:53;;;;;;;;;;;8.80;99.90;;;;;;4940103;29;20032;-89
2023/01/06 10:50:21;;;;;;;;;;;8.80;99.90;;;;;;4924205;29;20028;-90
2023/01/06 10:52:47;;;;;;;;;;;8.90;99.90;;;;;;4939740;29;20470;-90
2023/01/06 10:55:19;;;;;;;;;;;7.60;99.90;;;;;;4940179;29;19934;-91
2023/01/06 10:57:45;;;;;;;;;;;9.00;99.90;;;;;;4940252;29;19949;-90
2023/01/06 11:00:21;;;;;;;;;;;7.90;99.90;;;;;;4924388;29;19926;-89
2023/01/06 11:02:50;;;;;;;;;;;8.80;99.90;;;;;;4940058;29;19926;-90
2023/01/06 11:05:23;;;;;;;;;;;8.80;99.90;;;;;;4940349;29;19927;-89
2023/01/06 11:07:49;;;;;;;;;;;8.80;99.90;;;;;;4939906;29;20031;-89
2023/01/06 11:10:33;;;;;;;;;;;8.80;99.90;;;;;;4939704;29;20394;-89
2023/01/06 11:12:59;;;;;;;;;;;8.70;99.90;;;;;;4939735;29;19931;-89
2023/01/06 11:15:30;;;;;;;;;;;8.70;99.90;;;;;;4939576;29;19978;-88
2023/01/06 11:17:55;;;;;;;;;;;8.70;99.90;;;;;;4939967;29;19980;-88
2023/01/06 11:20:21;;;;;;;;;;;8.70;99.90;;;;;;4935751;29;19926;-86
2023/01/06 11:22:47;;;;;;;;;;;8.70;99.90;;;;;;4936409;29;19927;-88
2023/01/06 11:25:19;;;;;;;;;;;8.70;99.90;;;;;;4920815;29;19927;-88
2023/01/06 11:27:45;;;;;;;;;;;8.80;99.90;;;;;;4936467;29;20025;-88
2023/01/06 11:30:25;;;;;;;;;;;8.90;99.90;;;;;;4936319;29;20073;-89
2023/01/06 11:32:50;;;;;;;;;;;8.90;99.90;;;;;;4936624;29;19942;-89
2023/01/06 11:35:21;;;;;;;;;;;9.00;99.90;;;;;;4936837;29;20275;-92
2023/01/06 11:37:46;;;;;;;;;;;9.10;99.90;;;;;;4936178;29;19934;-89
2023/01/06 11:40:25;;;;;;;;;;;9.20;99.90;;;;;;4921206;29;19927;-90
2023/01/06 11:42:53;;;;;;;;;;;9.30;99.90;;;;;;4935927;29;19926;-89
2023/01/06 11:45:39;;;;;;;;;;;9.40;99.90;;;;;;4935359;29;19927;-91
2023/01/06 11:48:06;;;;;;;;;;;9.70;99.90;;;;;;4935592;29;19927;-89
2023/01/06 11:50:37;;;;;;;;;;;9.50;99.90;;;;;;4935827;29;20144;-89
2023/01/06 11:53:12;;;;;;;;;;;10.50;99.90;;;;;;4935535;29;19953;-89
2023/01/06 11:55:38;;;;;;;;;;;9.50;99.90;;;;;;4936105;29;19993;-89
2023/01/06 11:58:07;;;;;;;;;;;9.80;99.90;;;;;;4920779;29;19926;-87
2023/01/06 12:00:45;;;;;;;;;;;9.90;99.90;;;;;;4935815;29;20370;-89
2023/01/06 12:03:30;;;;;;;;;;;9.80;99.90;;;;;;4936002;29;19926;-89
2023/01/06 12:05:59;;;;;;;;;;;9.80;99.90;;;;;;4935593;29;19927;-86
2023/01/06 12:08:43;;;;;;;;;;;9.80;99.90;;;;;;4936393;29;19927;-87
2023/01/06 12:11:15;;;;;;;;;;;9.80;99.90;;;;;;4936318;29;19934;-88
2023/01/06 12:13:41;;;;;;;;;;;8.50;99.90;;;;;;4935728;29;19973;-91
2023/01/06 12:16:27;;;;;;;;;;;9.90;99.90;;;;;;4935939;29;19926;-89
2023/01/06 12:18:53;;;;;;;;;;;8.50;99.90;;;;;;4910266;29;19934;-89
2023/01/06 12:21:25;;;;;;;;;;;9.80;99.90;;;;;;4919170;29;19926;-89
2023/01/06 12:23:54;;;;;;;;;;;10.20;99.90;;;;;;4935827;29;20029;-89
2023/01/06 12:26:24;;;;;;;;;;;9.70;99.90;;;;;;4935600;29;20287;-91
2023/01/06 12:28:56;;;;;;;;;;;9.70;99.90;;;;;;4935547;29;19927;-91
2023/01/06 12:31:21;;;;;;;;;;;9.00;99.90;;;;;;4935310;29;20267;-90
2023/01/06 12:33:57;;;;;;;;;;;9.10;99.90;;;;;;4935563;29;19938;-90
2023/01/06 12:36:28;;;;;;;;;;;9.50;99.90;;;;;;4935207;29;19931;-91
2023/01/06 12:38:57;;;;;;;;;;;9.40;99.90;;;;;;4936500;29;20013;-91
2023/01/06 12:41:32;;;;;;;;;;;9.20;99.90;;;;;;4935158;29;20379;-89
2023/01/06 12:44:18;;;;;;;;;;;9.20;99.90;;;;;;4935477;29;19938;-91
2023/01/06 12:46:49;;;;;;;;;;;9.10;99.90;;;;;;4915238;29;19934;-89
2023/01/06 12:49:30;;;;;;;;;;;9.10;99.90;;;;;;4935769;29;19949;-91
2023/01/06 12:51:59;;;;;;;;;;;9.20;99.90;;;;;;4935306;29;19927;-92
2023/01/06 12:54:37;;;;;;;;;;;9.30;99.90;;;;;;4935232;29;19965;-89
2023/01/06 12:57:16;;;;;;;;;;;9.10;99.90;;;;;;4935462;29;19926;-90
2023/01/06 12:59:45;;;;;;;;;;;9.00;99.90;;;;;;4935498;29;19926;-90
2023/01/06 13:02:30;;;;;;;;;;;9.20;99.90;;;;;;4934884;29;19927;-90
2023/01/06 13:05:01;;;;;;;;;;;9.10;99.90;;;;;;4934806;29;19927;-89
2023/01/06 13:07:35;;;;;;;;;;;9.10;99.90;;;;;;4937052;29;19927;-91
2023/01/06 13:10:19;;;;;;;;;;;9.30;99.90;;;;;;4939159;29;19927;-90
2023/01/06 13:12:48;;;;;;;;;;;9.10;99.90;;;;;;4938920;29;19930;-89
2023/01/06 13:15:23;;;;;;;;;;;9.10;99.90;;;;;;4938225;29;19969;-90
2023/01/06 13:17:49;;;;;;;;;;;9.00;99.90;;;;;;4938764;29;19948;-90
2023/01/06 13:20:41;;;;;;;;;;;9.00;99.90;;;;;;4940727;29;20399;-90
2023/01/06 13:23:13;;;;;;;;;;;10.10;99.90;;;;;;4917925;29;20343;-89
2023/01/06 13:25:42;;;;;;;;;;;8.70;99.90;;;;;;4941605;29;20323;-89
2023/01/06 13:28:27;;;;;;;;;;;8.80;99.90;;;;;;4941939;29;19930;-86
2023/01/06 13:31:08;;;;;;;;;;;9.00;99.90;;;;;;4941563;29;19933;-88
2023/01/06 13:33:33;;;;;;;;;;;8.80;99.90;;;;;;4941994;29;19931;-86
2023/01/06 13:36:16;;;;;;;;;;;8.80;99.90;;;;;;4941442;29;19933;-89
2023/01/06 13:38:56;;;;;;;;;;;8.90;99.90;;;;;;4941567;29;20393;-90
2023/01/06 13:41:25;;;;;;;;;;;8.70;99.90;;;;;;4942110;29;19927;-90
2023/01/06 13:43:55;;;;;;;;;;;8.80;99.90;;;;;;4941413;29;19926;-90
2023/01/06 13:46:22;;;;;;;;;;;8.90;99.90;;;;;;4941016;29;20334;-90
2023/01/06 13:48:49;;;;;;;;;;;8.80;99.90;;;;;;4941185;29;20378;-89
2023/01/06 13:51:24;;;;;;;;;;;8.70;99.90;;;;;;4941253;29;19985;-89
2023/01/06 13:53:53;;;;;;;;;;;8.80;99.90;;;;;;4941515;29;19926;-92
2023/01/06 13:56:23;;;;;;;;;;;8.70;99.90;;;;;;4940468;29;19927;-91
2023/01/06 13:58:50;;;;;;;;;;;8.60;99.90;;;;;;4909961;29;19930;-88
2023/01/06 14:01:19;;;;;;;;;;;8.80;99.90;;;;;;4941317;29;19926;-88
2023/01/06 14:03:55;;;;;;;;;;;8.60;99.90;;;;;;4940516;29;20386;-90
2023/01/06 14:06:24;;;;;;;;;;;9.20;99.90;;;;;;4941619;29;20026;-91
2023/01/06 14:08:55;;;;;;;;;;;8.60;99.90;;;;;;4940608;29;19981;-90
2023/01/06 14:11:31;;;;;;;;;;;8.50;99.90;;;;;;4940566;29;20367;-91
2023/01/06 14:14:00;;;;;;;;;;;7.10;99.90;;;;;;4940603;29;19926;-91
2023/01/06 14:17:02;;;;;;;;;;;8.50;99.90;;;;;;4940577;29;20370;-90
2023/01/06 14:19:32;;;;;;;;;;;8.50;99.90;;;;;;4901540;29;19927;-89
2023/01/06 14:22:30;;;;;;;;;;;8.50;99.90;;;;;;4937108;29;20010;-90
2023/01/06 14:25:05;;;;;;;;;;;8.50;99.90;;;;;;4910366;29;19953;-92
2023/01/06 14:27:46;;;;;;;;;;;8.50;99.90;;;;;;4937116;29;19927;-89
2023/01/06 14:30:20;;;;;;;;;;;8.50;99.90;;;;;;4937351;29;19934;-89
2023/01/06 14:32:46;;;;;;;;;;;8.50;99.90;;;;;;4937646;29;20283;-91
2023/01/06 14:35:13;;;;;;;;;;;8.40;99.90;;;;;;4937591;29;20017;-91
2023/01/06 14:37:39;;;;;;;;;;;8.50;99.90;;;;;;4937282;29;19927;-89
2023/01/06 14:40:05;;;;;;;;;;;8.40;99.90;;;;;;4937135;29;20021;-89